Time;durP1;ratioP1;P1;durP2;ratioP2;P2;SDS_P1;SDS_P2;PMS_P1;PMS_P2;Temp;Humidity;BMP_temperature;BMP_pressure;BME280_temperature;BME280_humidity;BME280_pressure;Samples;Min_cycle;Max_cycle;Signal;HPM_P1;HPM_P2
2021/08/23 03:32:35;;;;;;;0.20;0.20;;;;;;;17.55;45.62;92570.63;4846425;24;20062;-76
2021/08/23 03:35:01;;;;;;;0.10;0.10;;;;;;;17.48;46.03;92577.22;4799468;29;20055;-75
2021/08/23 03:37:28;;;;;;;0.35;0.30;;;;;;;17.56;45.72;92583.56;4798708;29;20160;-76
2021/08/23 03:39:53;;;;;;;0.25;0.25;;;;;;;17.60;45.74;92555.31;4805740;29;20570;-76
2021/08/23 03:42:19;;;;;;;0.25;0.25;;;;;;;17.62;45.81;92584.88;4786037;29;20067;-76
2021/08/23 03:44:45;;;;;;;0.10;0.10;;;;;;;17.57;45.78;92571.84;4783438;29;20142;-75
2021/08/23 03:47:10;;;;;;;0.22;0.20;;;;;;;17.60;45.25;92576.47;4785636;30;20056;-76
2021/08/23 03:49:36;;;;;;;0.20;0.20;;;;;;;17.55;45.71;92589.16;4787146;30;20062;-76
2021/08/23 03:52:03;;;;;;;0.20;0.20;;;;;;;17.50;45.93;92578.78;4786108;29;20052;-76
2021/08/23 03:54:29;;;;;;;0.20;0.20;;;;;;;17.44;46.11;92578.97;4800950;29;20130;-75
2021/08/23 03:56:54;;;;;;;0.20;0.20;;;;;;;17.49;45.35;92583.28;4800414;29;20108;-76
2021/08/23 03:59:20;;;;;;;0.13;0.13;;;;;;;17.50;44.86;92573.50;4785932;30;20502;-76
2021/08/23 04:01:46;;;;;;;0.10;0.10;;;;;;;17.51;45.05;92591.69;4785298;30;20054;-75
2021/08/23 04:04:11;;;;;;;0.70;0.55;;;;;;;17.55;44.95;92592.56;4785814;29;20105;-75
2021/08/23 04:06:44;;;;;;;0.20;0.20;;;;;;;17.51;45.24;92586.38;4785819;30;20039;-76
2021/08/23 04:09:11;;;;;;;0.30;0.30;;;;;;;17.48;45.15;92592.34;4786010;30;20055;-75
2021/08/23 04:11:36;;;;;;;0.22;0.22;;;;;;;17.42;45.52;92589.09;4787077;29;20046;-75
2021/08/23 04:14:03;;;;;;;0.20;0.20;;;;;;;17.45;44.95;92585.81;4800622;29;20051;-75
2021/08/23 04:16:28;;;;;;;0.30;0.30;;;;;;;17.42;45.21;92588.34;4785376;30;20047;-76
2021/08/23 04:18:54;;;;;;;0.45;0.30;;;;;;;17.37;45.39;92596.50;4786352;29;20150;-75
2021/08/23 04:21:21;;;;;;;0.28;0.25;;;;;;;17.34;45.27;92581.25;4786055;29;20047;-76
2021/08/23 04:23:47;;;;;;;0.52;0.30;;;;;;;17.38;45.12;92592.72;4769691;30;20088;-76
2021/08/23 04:26:12;;;;;;;0.38;0.38;;;;;;;17.33;44.96;92585.78;4784924;30;20077;-77
2021/08/23 04:28:38;;;;;;;0.55;0.40;;;;;;;17.31;45.21;92592.50;4797791;29;20043;-75
2021/08/23 04:31:24;;;;;;;0.10;0.10;;;;;;;17.36;44.93;92594.94;4773465;29;20572;-75
2021/08/23 04:33:50;;;;;;;0.65;0.47;;;;;;;17.31;44.80;92597.78;4750266;30;20048;-75
2021/08/23 04:36:15;;;;;;;0.10;0.10;;;;;;;17.28;45.15;92593.91;4762714;30;20082;-76
2021/08/23 04:38:41;;;;;;;0.55;0.47;;;;;;;17.34;44.89;92597.13;4750269;30;20051;-75
2021/08/23 04:41:09;;;;;;;0.40;0.40;;;;;;;17.36;44.69;92605.50;4760288;30;20047;-75
2021/08/23 04:43:35;;;;;;;0.65;0.30;;;;;;;17.32;44.97;92602.75;4761691;30;20092;-75
2021/08/23 04:46:01;;;;;;;0.20;0.20;;;;;;;17.29;45.14;92608.69;4748953;30;20071;-74
2021/08/23 04:48:26;;;;;;;0.10;0.10;;;;;;;17.27;44.99;92611.66;4757511;30;20503;-75
2021/08/23 04:50:52;;;;;;;0.30;0.22;;;;;;;17.27;45.30;92609.03;4763756;30;20048;-75
2021/08/23 04:53:18;;;;;;;0.10;0.10;;;;;;;17.27;45.27;92614.31;4749429;30;20055;-75
2021/08/23 04:55:43;;;;;;;0.20;0.20;;;;;;;17.37;44.75;92607.06;4766584;30;20448;-75
2021/08/23 04:58:09;;;;;;;0.20;0.20;;;;;;;17.42;44.83;92602.34;4740563;30;20488;-75
2021/08/23 05:00:35;;;;;;;0.20;0.20;;;;;;;17.47;44.42;92596.88;4745728;30;20061;-74
2021/08/23 05:03:00;;;;;;;0.40;0.40;;;;;;;17.51;44.09;92604.91;4745954;30;20110;-76
2021/08/23 05:05:26;;;;;;;0.30;0.30;;;;;;;17.54;44.22;92598.97;4745927;30;20471;-76
2021/08/23 05:07:52;;;;;;;0.30;0.30;;;;;;;17.54;44.28;92601.63;4728614;30;20068;-75
2021/08/23 05:10:18;;;;;;;1.00;0.30;;;;;;;17.59;44.50;92600.66;4751390;30;20056;-76
2021/08/23 05:12:44;;;;;;;0.50;0.30;;;;;;;17.60;44.44;92608.25;4762098;30;20117;-75
2021/08/23 05:15:10;;;;;;;0.28;0.22;;;;;;;17.62;43.77;92598.09;4748906;30;20052;-76
2021/08/23 05:17:35;;;;;;;0.30;0.30;;;;;;;17.67;44.28;92605.88;4762755;30;20059;-76
2021/08/23 05:20:01;;;;;;;0.40;0.40;;;;;;;17.76;43.58;92602.34;4762248;30;20044;-76
2021/08/23 05:22:27;;;;;;;0.20;0.20;;;;;;;17.76;44.20;92607.63;4749043;30;20048;-76
2021/08/23 05:24:53;;;;;;;0.20;0.20;;;;;;;17.80;43.60;92600.59;4762880;30;20094;-75
2021/08/23 05:27:19;;;;;;;0.20;0.20;;;;;;;17.84;43.97;92604.94;4749453;30;20535;-75
2021/08/23 05:29:44;;;;;;;0.20;0.20;;;;;;;17.88;43.24;92618.28;4749163;30;20224;-76
2021/08/23 05:32:10;;;;;;;0.52;0.30;;;;;;;17.92;43.30;92608.56;4783920;29;20047;-76
2021/08/23 05:34:36;;;;;;;0.35;0.35;;;;;;;18.01;43.54;92611.91;4798076;29;20139;-75
2021/08/23 05:37:01;;;;;;;0.60;0.40;;;;;;;18.04;43.58;92616.56;4787254;29;20078;-76
2021/08/23 05:39:27;;;;;;;0.20;0.20;;;;;;;18.08;43.48;92609.50;4802217;29;20043;-75
2021/08/23 05:41:53;;;;;;;0.30;0.30;;;;;;;18.12;44.17;92616.78;4787730;29;20097;-76
2021/08/23 05:44:18;;;;;;;0.30;0.30;;;;;;;18.14;44.10;92615.34;4786961;29;20079;-75
2021/08/23 05:46:44;;;;;;;0.20;0.20;;;;;;;18.24;43.82;92622.09;4788070;29;20085;-75
2021/08/23 05:49:09;;;;;;;0.50;0.40;;;;;;;18.28;44.69;92617.66;4787025;30;20051;-75
2021/08/23 05:51:35;;;;;;;0.20;0.20;;;;;;;18.30;44.27;92626.06;4788165;29;20055;-75
2021/08/23 05:54:00;;;;;;;0.35;0.30;;;;;;;18.37;44.01;92620.97;4787940;29;20043;-76
2021/08/23 05:56:26;;;;;;;0.30;0.20;;;;;;;18.42;42.57;92630.63;4787815;29;20127;-76
2021/08/23 05:58:52;;;;;;;1.00;0.47;;;;;;;18.56;42.88;92622.34;4787710;29;20498;-75
2021/08/23 06:01:17;;;;;;;1.15;0.52;;;;;;;18.66;42.77;92627.94;4784853;29;20063;-75
2021/08/23 06:03:44;;;;;;;0.20;0.20;;;;;;;18.77;43.28;92630.94;4788673;29;20057;-76
2021/08/23 06:06:10;;;;;;;0.30;0.30;;;;;;;18.86;42.66;92634.25;4783597;29;20371;-76
2021/08/23 06:08:36;;;;;;;0.17;0.17;;;;;;;18.97;42.64;92639.13;4771429;30;20135;-75
2021/08/23 06:11:03;;;;;;;0.32;0.30;;;;;;;19.09;41.96;92633.78;4786450;30;20067;-75
2021/08/23 06:13:29;;;;;;;0.30;0.30;;;;;;;19.27;41.95;92624.47;4786420;30;20510;-76
2021/08/23 06:15:57;;;;;;;0.55;0.40;;;;;;;19.45;41.26;92619.63;4787424;29;20516;-75
2021/08/23 06:18:23;;;;;;;0.80;0.65;;;;;;;19.62;40.66;92634.50;4787892;29;20270;-75
2021/08/23 06:20:49;;;;;;;0.60;0.60;;;;;;;19.95;39.76;92617.56;4787349;29;20514;-77
2021/08/23 06:23:15;;;;;;;0.70;0.70;;;;;;;21.76;36.66;92616.63;4786740;29;20141;-75
2021/08/23 06:25:40;;;;;;;0.65;0.65;;;;;;;24.73;31.51;92630.53;4793214;29;20143;-76
2021/08/23 06:28:07;;;;;;;1.45;1.00;;;;;;;27.14;27.22;92625.94;4783271;30;20046;-76
2021/08/23 06:30:33;;;;;;;1.13;0.95;;;;;;;28.55;24.73;92622.31;4773670;29;20059;-76
2021/08/23 06:32:59;;;;;;;1.20;0.98;;;;;;;29.74;23.16;92618.53;4785889;30;20059;-76
2021/08/23 06:35:24;;;;;;;0.90;0.90;;;;;;;30.42;21.85;92615.75;4787676;29;20050;-76
2021/08/23 06:37:50;;;;;;;1.25;1.05;;;;;;;31.60;21.76;92623.84;4787177;29;20047;-76
2021/08/23 06:40:16;;;;;;;6.88;0.95;;;;;;;32.31;20.85;92616.25;4779675;29;20074;-76
2021/08/23 06:42:41;;;;;;;0.90;0.90;;;;;;;32.89;19.89;92612.97;4785382;29;20039;-75
2021/08/23 06:45:07;;;;;;;1.23;1.00;;;;;;;33.71;18.43;92610.16;4787118;29;20063;-75
2021/08/23 06:47:34;;;;;;;1.58;1.27;;;;;;;33.58;17.87;92614.78;4778080;29;20055;-76
2021/08/23 06:50:00;;;;;;;1.00;0.90;;;;;;;34.25;18.10;92611.38;4769075;30;20063;-76
2021/08/23 06:52:25;;;;;;;1.10;1.00;;;;;;;34.13;18.23;92615.59;4753008;30;20040;-75
2021/08/23 06:54:51;;;;;;;1.20;1.10;;;;;;;34.61;17.31;92621.16;4782401;29;20430;-76
2021/08/23 06:57:17;;;;;;;1.52;1.00;;;;;;;34.65;17.90;92623.78;4796456;29;20476;-76
2021/08/23 06:59:42;;;;;;;1.00;0.90;;;;;;;34.94;16.92;92613.53;4768671;30;20051;-76
2021/08/23 07:02:08;;;;;;;1.35;0.90;;;;;;;34.17;18.43;92610.06;4782407;29;20036;-76
2021/08/23 07:04:35;;;;;;;1.75;0.80;;;;;;;33.54;18.28;92617.56;4782721;30;20060;-76
2021/08/23 07:07:04;;;;;;;1.08;0.73;;;;;;;31.95;20.25;92610.78;4781182;29;20047;-76
2021/08/23 07:09:30;;;;;;;0.77;0.63;;;;;;;30.87;21.18;92607.34;4785543;30;20414;-76
2021/08/23 07:11:56;;;;;;;0.65;0.60;;;;;;;29.64;22.76;92606.69;4785959;29;20043;-77
2021/08/23 07:14:21;;;;;;;0.90;0.60;;;;;;;28.13;24.82;92612.56;4785617;30;20486;-76
2021/08/23 07:16:47;;;;;;;0.65;0.50;;;;;;;27.81;24.72;92613.47;4777929;30;20075;-75
2021/08/23 07:19:12;;;;;;;1.00;0.70;;;;;;;27.19;25.71;92604.81;4768889;30;20135;-75
2021/08/23 07:21:38;;;;;;;2.25;1.05;;;;;;;26.94;26.37;92620.97;4761525;30;20071;-76
2021/08/23 07:24:06;;;;;;;0.98;0.65;;;;;;;26.17;26.93;92625.91;4782504;30;20067;-76
2021/08/23 07:26:31;;;;;;;1.02;0.50;;;;;;;26.19;26.81;92612.88;4785290;29;20128;-75
2021/08/23 07:28:57;;;;;;;1.60;0.63;;;;;;;25.91;28.19;92614.31;4799918;29;20055;-75
2021/08/23 07:31:22;;;;;;;0.93;0.77;;;;;;;26.02;27.81;92625.09;4779601;29;20147;-76
2021/08/23 07:33:48;;;;;;;0.75;0.57;;;;;;;25.85;28.64;92621.19;4768132;30;20108;-75
2021/08/23 07:36:14;;;;;;;0.40;0.40;;;;;;;25.44;28.15;92613.38;4769074;29;20056;-76
2021/08/23 07:38:40;;;;;;;0.52;0.47;;;;;;;25.88;28.94;92623.13;4773525;30;20052;-76
2021/08/23 07:41:05;;;;;;;0.75;0.60;;;;;;;25.91;28.40;92630.41;4771364;30;20433;-76
2021/08/23 07:43:31;;;;;;;0.50;0.50;;;;;;;25.98;27.87;92623.56;4767021;30;20422;-76
2021/08/23 07:45:57;;;;;;;1.15;0.65;;;;;;;26.16;28.39;92633.19;4768196;30;20051;-75
2021/08/23 07:48:23;;;;;;;1.33;0.82;;;;;;;26.10;28.00;92631.25;4782072;29;20522;-75
2021/08/23 07:50:48;;;;;;;0.50;0.50;;;;;;;26.00;27.75;92627.38;4768280;30;20039;-75
2021/08/23 07:53:14;;;;;;;2.08;0.80;;;;;;;26.17;28.88;92631.25;4781753;30;20060;-76
2021/08/23 07:55:40;;;;;;;1.33;0.70;;;;;;;26.31;28.26;92633.97;4770465;30;20039;-76
2021/08/23 07:58:05;;;;;;;0.55;0.50;;;;;;;26.09;27.89;92635.06;4776180;30;20052;-76
2021/08/23 08:00:31;;;;;;;0.85;0.60;;;;;;;25.63;29.24;92635.66;4781726;30;20414;-76
2021/08/23 08:02:56;;;;;;;0.88;0.63;;;;;;;25.90;29.73;92628.91;4766631;30;20106;-76
2021/08/23 08:05:22;;;;;;;1.27;0.80;;;;;;;25.83;28.28;92634.22;4770380;29;20462;-76
2021/08/23 08:07:49;;;;;;;0.40;0.40;;;;;;;25.92;28.87;92641.94;4750210;30;20415;-76
2021/08/23 08:10:14;;;;;;;0.35;0.35;;;;;;;25.98;28.61;92623.56;4763764;30;20040;-76
2021/08/23 08:12:41;;;;;;;0.73;0.50;;;;;;;25.84;28.49;92635.72;4749074;30;20117;-76
2021/08/23 08:15:07;;;;;;;0.95;0.52;;;;;;;25.91;28.32;92640.38;4756167;30;20055;-76
2021/08/23 08:17:34;;;;;;;0.65;0.50;;;;;;;25.88;28.85;92639.22;4767189;30;20055;-76
2021/08/23 08:20:00;;;;;;;1.80;0.80;;;;;;;25.73;28.67;92629.56;4766782;30;20063;-76
2021/08/23 08:22:26;;;;;;;0.55;0.47;;;;;;;25.98;29.32;92650.38;4767911;30;20048;-76
2021/08/23 08:24:51;;;;;;;1.08;0.50;;;;;;;25.88;28.33;92641.91;4762237;30;20093;-75
2021/08/23 08:27:17;;;;;;;1.15;0.70;;;;;;;25.87;29.34;92640.38;4766763;30;20062;-76
2021/08/23 08:29:43;;;;;;;1.38;0.75;;;;;;;25.95;29.07;92639.25;4761591;30;20043;-76
2021/08/23 08:32:09;;;;;;;1.98;0.73;;;;;;;26.07;28.69;92648.84;4779789;29;20051;-76
2021/08/23 08:34:34;;;;;;;1.08;0.45;;;;;;;26.17;29.05;92653.50;4785576;29;20503;-75
2021/08/23 08:37:01;;;;;;;0.55;0.47;;;;;;;25.74;28.71;92642.59;4786314;30;20099;-76
2021/08/23 08:39:27;;;;;;;0.45;0.45;;;;;;;25.94;28.45;92645.78;4786370;30;20051;-78
2021/08/23 08:41:52;;;;;;;0.90;0.68;;;;;;;26.09;28.47;92635.84;4785885;29;20154;-76
2021/08/23 08:44:18;;;;;;;1.23;0.65;;;;;;;25.98;27.91;92647.69;4799992;29;20100;-77
2021/08/23 08:46:45;;;;;;;0.95;0.60;;;;;;;25.57;28.77;92645.22;4788157;30;20051;-78
2021/08/23 08:49:12;;;;;;;0.57;0.50;;;;;;;24.99;28.67;92654.78;4789171;29;20039;-78
2021/08/23 08:51:39;;;;;;;0.80;0.68;;;;;;;25.24;28.63;92652.31;4804001;29;20051;-78
2021/08/23 08:54:06;;;;;;;1.25;0.63;;;;;;;25.39;28.58;92653.91;4789359;30;20047;-78
2021/08/23 08:56:35;;;;;;;0.90;0.60;;;;;;;25.65;29.49;92652.16;4804059;29;20053;-79
2021/08/23 08:59:03;;;;;;;1.27;0.90;;;;;;;25.96;29.37;92643.47;4803868;29;20047;-78
2021/08/23 09:01:29;;;;;;;0.77;0.55;;;;;;;26.11;28.95;92660.38;4790332;29;20043;-78
2021/08/23 09:04:01;;;;;;;0.55;0.47;;;;;;;26.07;29.64;92661.50;4788879;29;20461;-79
2021/08/23 09:06:35;;;;;;;;;;;;;;;26.05;27.82;92655.75;4791609;29;20051;-78
2021/08/23 09:09:01;;;;;;;0.85;0.38;;;;;;;26.07;29.53;92653.44;4792616;29;19918;-78
2021/08/23 09:11:26;;;;;;;0.70;0.60;;;;;;;26.14;28.93;92661.50;4794320;29;20426;-78
2021/08/23 09:14:02;;;;;;;0.75;0.50;;;;;;;26.19;28.34;92658.47;4780858;29;20056;-78
2021/08/23 09:16:34;;;;;;;1.42;0.77;;;;;;;26.27;27.69;92646.59;4793926;29;20083;-78
2021/08/23 09:19:00;;;;;;;0.95;0.60;;;;;;;26.28;26.48;92653.53;4807787;29;20087;-78
2021/08/23 09:21:32;;;;;;;0.80;0.63;;;;;;;26.17;27.95;92663.47;4793457;29;20513;-78
2021/08/23 09:23:58;;;;;;;0.77;0.60;;;;;;;26.13;30.28;92668.03;4790510;29;20059;-78
2021/08/23 09:26:33;;;;;;;0.40;0.35;;;;;;;26.01;29.97;92654.97;4787295;29;20051;-78
2021/08/23 09:29:06;;;;;;;1.27;0.77;;;;;;;26.47;29.14;92657.00;4791061;29;21047;-78
2021/08/23 09:31:36;;;;;;;1.45;0.52;;;;;;;26.25;27.27;92656.94;4802147;29;20089;-78
2021/08/23 09:34:08;;;;;;;1.25;0.77;;;;;;;26.25;27.99;92665.00;4785350;29;20056;-78
2021/08/23 09:36:33;;;;;;;0.75;0.50;;;;;;;26.34;29.08;92660.06;4786356;29;20502;-79
2021/08/23 09:39:05;;;;;;;0.63;0.52;;;;;;;26.68;28.78;92664.31;4789927;29;20051;-79
2021/08/23 09:41:32;;;;;;;0.32;0.30;;;;;;;26.76;28.54;92658.56;4790592;29;20044;-80
2021/08/23 09:43:59;;;;;;;0.43;0.43;;;;;;;26.60;28.11;92660.88;4791067;29;20047;-79
2021/08/23 09:46:25;;;;;;;3.03;0.73;;;;;;;26.75;27.10;92658.94;4791543;29;20055;-79
2021/08/23 09:48:53;;;;;;;0.40;0.40;;;;;;;26.58;28.50;92661.25;4792098;29;20517;-79
2021/08/23 09:51:31;;;;;;;0.98;0.73;;;;;;;26.26;28.40;92658.50;4781803;29;20047;-80
2021/08/23 09:54:23;;;;;;;3.60;0.47;;;;;;;26.59;28.40;92670.06;4772831;30;20126;-79
2021/08/23 09:56:51;;;;;;;;;;;;;;;26.13;26.77;92660.00;4772987;30;20134;-80
2021/08/23 09:59:19;;;;;;;1.65;0.88;;;;;;;26.27;26.10;92657.34;4789401;29;19968;-79
2021/08/23 10:01:49;;;;;;;0.40;0.40;;;;;;;26.04;28.93;92673.00;4792422;29;20051;-79
2021/08/23 10:04:16;;;;;;;0.85;0.50;;;;;;;26.14;28.04;92659.63;4787678;30;20138;-79
2021/08/23 10:06:44;;;;;;;1.17;0.47;;;;;;;26.17;29.09;92668.81;4773365;30;20044;-80
2021/08/23 10:09:15;;;;;;;0.93;0.63;;;;;;;26.51;28.45;92668.50;4803765;29;20564;-79
2021/08/23 10:11:41;;;;;;;0.65;0.55;;;;;;;26.12;28.50;92655.75;4775238;29;20051;-79
2021/08/23 10:14:07;;;;;;;0.82;0.57;;;;;;;26.31;29.20;92674.22;4787713;30;20048;-79
2021/08/23 10:16:35;;;;;;;0.77;0.65;;;;;;;26.65;29.09;92660.47;4787417;29;20056;-79
2021/08/23 10:19:02;;;;;;;1.45;0.80;;;;;;;26.41;29.44;92661.19;4785922;30;20052;-77
2021/08/23 10:21:28;;;;;;;1.05;0.68;;;;;;;26.72;28.57;92663.16;4798188;29;20103;-80
2021/08/23 10:23:56;;;;;;;1.17;0.63;;;;;;;26.82;27.59;92658.97;4791193;29;20047;-78
2021/08/23 10:26:22;;;;;;;0.40;0.40;;;;;;;26.78;27.80;92661.63;4802749;29;20066;-78
2021/08/23 10:28:48;;;;;;;1.42;0.80;;;;;;;26.85;28.37;92654.75;4790912;29;20060;-77
2021/08/23 10:31:16;;;;;;;1.65;0.77;;;;;;;26.78;30.11;92658.19;4777767;29;20462;-78
2021/08/23 10:33:44;;;;;;;0.93;0.68;;;;;;;26.70;27.85;92662.78;4787049;30;20060;-78
2021/08/23 10:36:12;;;;;;;2.38;0.88;;;;;;;25.00;32.05;92651.00;4786518;30;20515;-78
2021/08/23 10:38:40;;;;;;;0.75;0.60;;;;;;;25.94;31.83;92650.38;4787386;30;20624;-79
2021/08/23 10:41:14;;;;;;;1.05;0.70;;;;;;;25.72;29.43;92649.50;4798797;29;20043;-78
2021/08/23 10:43:58;;;;;;;1.55;0.85;;;;;;;26.14;32.80;92640.06;4790982;29;20058;-78
2021/08/23 10:46:32;;;;;;;0.77;0.68;;;;;;;26.69;31.02;92644.38;4791916;29;20085;-78
2021/08/23 10:49:03;;;;;;;1.90;1.08;;;;;;;26.54;31.26;92647.03;4805198;29;20407;-77
2021/08/23 10:51:35;;;;;;;0.90;0.70;;;;;;;26.13;31.51;92646.59;4783748;29;20546;-77
2021/08/23 10:54:02;;;;;;;0.55;0.55;;;;;;;26.17;28.07;92642.00;4790009;29;20442;-78
2021/08/23 10:56:37;;;;;;;0.50;0.50;;;;;;;26.59;28.63;92643.22;4806292;29;20485;-79
2021/08/23 10:59:14;;;;;;;0.82;0.55;;;;;;;26.83;29.86;92646.31;4790241;29;20108;-78
2021/08/23 11:01:52;;;;;;;0.45;0.35;;;;;;;26.56;29.37;92641.31;4789015;29;20443;-77
2021/08/23 11:04:34;;;;;;;1.52;0.88;;;;;;;27.08;28.63;92641.66;4787529;29;20263;-78
2021/08/23 11:07:02;;;;;;;1.55;1.02;;;;;;;27.47;28.56;92651.63;4801151;29;20069;-76
2021/08/23 11:09:34;;;;;;;1.08;0.60;;;;;;;27.51;26.63;92638.91;4801154;29;20519;-78
2021/08/23 11:12:11;;;;;;;1.00;0.63;;;;;;;27.12;26.43;92637.06;4800277;29;20590;-76
2021/08/23 11:14:51;;;;;;;0.70;0.65;;;;;;;27.25;27.77;92644.75;4799811;29;20139;-77
2021/08/23 11:17:32;;;;;;;0.73;0.60;;;;;;;27.54;27.02;92642.78;4775612;29;20145;-77
2021/08/23 11:20:08;;;;;;;1.17;0.70;;;;;;;27.52;26.76;92637.78;4784140;29;20070;-77
2021/08/23 11:22:34;;;;;;;0.85;0.63;;;;;;;26.98;27.88;92640.53;4810938;29;20051;-77
2021/08/23 11:25:00;;;;;;;1.38;0.75;;;;;;;27.51;28.08;92640.84;4804923;29;20094;-78
2021/08/23 11:27:25;;;;;;;0.95;0.65;;;;;;;27.39;27.60;92634.72;4787864;29;20142;-77
2021/08/23 11:29:56;;;;;;;0.80;0.50;;;;;;;26.55;28.61;92634.41;4795634;29;20061;-77
2021/08/23 11:32:28;;;;;;;0.50;0.47;;;;;;;26.31;28.77;92630.53;4767697;30;20186;-78
2021/08/23 11:34:57;;;;;;;2.42;0.77;;;;;;;26.85;29.44;92630.56;4767828;30;20139;-78
2021/08/23 11:37:28;;;;;;;1.42;0.80;;;;;;;27.21;26.93;92631.31;4778761;29;20036;-78
2021/08/23 11:40:03;;;;;;;0.77;0.68;;;;;;;27.05;26.98;92631.69;4753446;30;20052;-77
2021/08/23 11:42:28;;;;;;;1.08;0.77;;;;;;;26.99;26.95;92635.91;4761362;30;20686;-78
2021/08/23 11:44:54;;;;;;;0.80;0.60;;;;;;;27.09;27.62;92637.06;4766834;30;20097;-79
2021/08/23 11:47:29;;;;;;;2.08;0.70;;;;;;;27.08;27.37;92625.56;4763743;30;20052;-78
2021/08/23 11:49:56;;;;;;;1.13;0.80;;;;;;;27.24;27.57;92635.91;4771332;30;20464;-77
2021/08/23 11:52:21;;;;;;;0.95;0.70;;;;;;;27.37;26.96;92628.97;4784527;29;20128;-78
2021/08/23 11:54:49;;;;;;;0.43;0.43;;;;;;;27.15;28.02;92624.78;4755471;30;20063;-79
2021/08/23 11:57:23;;;;;;;1.13;0.68;;;;;;;27.34;27.12;92624.38;4761413;30;20044;-78
2021/08/23 11:59:58;;;;;;;1.38;0.60;;;;;;;27.37;28.56;92618.22;4770588;30;20063;-78
2021/08/23 12:02:31;;;;;;;0.55;0.45;;;;;;;27.51;27.20;92622.03;4788241;29;20047;-78
2021/08/23 12:05:11;;;;;;;0.80;0.80;;;;;;;26.94;27.68;92622.88;4784795;29;20051;-77
2021/08/23 12:07:45;;;;;;;0.60;0.60;;;;;;;26.97;27.50;92624.78;4783395;29;20083;-78
2021/08/23 12:10:32;;;;;;;1.02;0.75;;;;;;;27.44;27.98;92622.81;4759878;30;20040;-79
2021/08/23 12:13:10;;;;;;;1.13;0.63;;;;;;;27.38;29.35;92622.47;4765756;30;20046;-77
2021/08/23 12:15:37;;;;;;;1.95;0.82;;;;;;;26.72;28.22;92606.03;4768473;30;20040;-79
2021/08/23 12:18:10;;;;;;;0.50;0.45;;;;;;;27.03;27.03;92623.25;4783471;29;20063;-78
2021/08/23 12:20:36;;;;;;;0.70;0.52;;;;;;;26.66;27.04;92611.03;4782937;29;20673;-77
2021/08/23 12:23:02;;;;;;;0.47;0.47;;;;;;;27.18;28.12;92611.34;4776003;30;20040;-78
2021/08/23 12:25:28;;;;;;;1.08;0.65;;;;;;;26.81;28.75;92611.00;4786084;29;20055;-78
2021/08/23 12:27:54;;;;;;;0.47;0.47;;;;;;;27.09;26.05;92610.19;4788952;29;20044;-78
2021/08/23 12:30:46;;;;;;;0.63;0.63;;;;;;;27.47;26.58;92611.31;4778077;29;20058;-77
2021/08/23 12:33:16;;;;;;;1.02;0.82;;;;;;;27.81;26.97;92613.47;4764900;30;20048;-78
2021/08/23 12:35:43;;;;;;;0.88;0.73;;;;;;;28.00;26.08;92610.31;4769271;30;20055;-78
2021/08/23 12:38:09;;;;;;;0.75;0.52;;;;;;;27.15;27.53;92601.34;4755827;30;20051;-77
2021/08/23 12:40:34;;;;;;;1.42;0.70;;;;;;;27.62;28.46;92610.06;4765393;30;20603;-78
2021/08/23 12:43:00;;;;;;;1.83;0.80;;;;;;;26.99;26.89;92598.31;4785018;29;20077;-78
2021/08/23 12:45:26;;;;;;;3.42;0.65;;;;;;;26.66;26.36;92592.22;4772036;30;20059;-78
2021/08/23 12:47:52;;;;;;;0.93;0.73;;;;;;;26.72;26.92;92603.34;4780916;30;20043;-78
2021/08/23 12:50:19;;;;;;;1.60;0.73;;;;;;;26.88;27.00;92597.56;4777222;30;20082;-77
2021/08/23 12:52:45;;;;;;;1.35;0.75;;;;;;;27.00;26.28;92599.88;4762444;30;20507;-77
2021/08/23 12:55:10;;;;;;;1.15;0.70;;;;;;;26.93;27.34;92589.91;4769984;30;20055;-76
2021/08/23 12:57:36;;;;;;;1.88;1.02;;;;;;;26.62;28.94;92588.78;4782755;29;20074;-77
2021/08/23 13:00:07;;;;;;;0.40;0.30;;;;;;;27.26;27.24;92597.91;4785208;29;20047;-77
2021/08/23 13:02:33;;;;;;;1.30;0.73;;;;;;;27.43;26.54;92593.66;4784297;30;20060;-77
2021/08/23 13:04:58;;;;;;;0.75;0.57;;;;;;;26.94;29.17;92594.09;4785092;30;20051;-77
2021/08/23 13:07:24;;;;;;;0.65;0.52;;;;;;;26.67;26.15;92591.06;4752301;30;20384;-76
2021/08/23 13:09:51;;;;;;;1.08;0.60;;;;;;;26.58;29.29;92590.69;4781860;29;20055;-77
2021/08/23 13:12:16;;;;;;;0.70;0.57;;;;;;;26.72;26.89;92593.34;4754792;30;20506;-77
2021/08/23 13:14:42;;;;;;;0.57;0.55;;;;;;;26.59;27.40;92586.84;4770325;30;20055;-77
2021/08/23 13:17:08;;;;;;;0.40;0.40;;;;;;;26.65;27.11;92590.69;4762900;30;20079;-77
2021/08/23 13:19:33;;;;;;;0.65;0.60;;;;;;;26.85;29.65;92588.38;4786149;29;20063;-77
2021/08/23 13:22:00;;;;;;;0.90;0.80;;;;;;;27.04;28.80;92584.50;4769749;30;20079;-77
2021/08/23 13:24:25;;;;;;;1.35;0.88;;;;;;;27.20;26.71;92592.16;4773010;30;20407;-77
2021/08/23 13:26:51;;;;;;;1.13;0.75;;;;;;;27.00;26.31;92586.44;4784906;29;20052;-77
2021/08/23 13:29:17;;;;;;;1.38;0.80;;;;;;;27.38;26.74;92581.34;4771261;30;20083;-77
2021/08/23 13:31:42;;;;;;;1.27;0.75;;;;;;;27.53;26.80;92582.84;4799358;29;20058;-78
2021/08/23 13:34:08;;;;;;;0.93;0.88;;;;;;;27.87;25.94;92586.94;4789509;29;20086;-79
2021/08/23 13:36:34;;;;;;;0.85;0.70;;;;;;;28.17;26.39;92578.34;4791570;30;20517;-78
2021/08/23 13:39:01;;;;;;;1.35;0.70;;;;;;;27.51;25.31;92570.94;4805834;29;20049;-78
2021/08/23 13:41:27;;;;;;;1.08;0.70;;;;;;;27.54;25.86;92584.38;4804942;29;20067;-78
2021/08/23 13:43:53;;;;;;;0.95;0.73;;;;;;;27.77;26.18;92581.19;4791711;29;20035;-77
2021/08/23 13:46:18;;;;;;;0.70;0.65;;;;;;;28.06;27.44;92585.72;4805208;29;20059;-77
2021/08/23 13:48:44;;;;;;;1.05;0.75;;;;;;;28.21;27.40;92582.53;4790630;29;20701;-78
2021/08/23 13:51:10;;;;;;;1.63;1.00;;;;;;;28.12;26.67;92573.34;4773384;29;20526;-80
2021/08/23 13:53:35;;;;;;;0.85;0.70;;;;;;;28.39;26.00;92582.41;4789802;29;20054;-78
2021/08/23 13:56:01;;;;;;;0.60;0.60;;;;;;;28.45;25.72;92586.19;4791027;29;20047;-78
2021/08/23 13:58:27;;;;;;;2.53;0.90;;;;;;;28.44;26.30;92573.13;4804497;29;20524;-78
2021/08/23 14:00:53;;;;;;;0.82;0.70;;;;;;;28.35;26.20;92576.28;4788899;29;20044;-78
2021/08/23 14:03:18;;;;;;;1.83;0.90;;;;;;;28.59;27.06;92582.66;4789625;29;20130;-77
2021/08/23 14:05:44;;;;;;;1.65;0.93;;;;;;;28.56;25.19;92574.63;4788747;30;20051;-78
2021/08/23 14:08:10;;;;;;;0.60;0.60;;;;;;;28.51;24.27;92577.75;4789364;30;20062;-78
2021/08/23 14:10:35;;;;;;;1.83;0.93;;;;;;;28.45;25.83;92578.09;4790962;29;20054;-78
2021/08/23 14:13:02;;;;;;;1.08;0.73;;;;;;;28.40;25.60;92581.22;4788835;29;20458;-78
2021/08/23 14:15:28;;;;;;;0.95;0.65;;;;;;;28.59;25.02;92584.56;4788148;29;20055;-78
2021/08/23 14:17:53;;;;;;;1.40;1.00;;;;;;;28.77;24.15;92587.13;4803915;29;20063;-78
2021/08/23 14:20:19;;;;;;;1.45;0.63;;;;;;;28.89;24.72;92575.06;4800195;29;20044;-78
2021/08/23 14:22:45;;;;;;;1.10;0.63;;;;;;;28.90;25.63;92580.06;4774536;30;20051;-79
2021/08/23 14:25:12;;;;;;;0.90;0.70;;;;;;;29.05;24.81;92578.03;4791045;29;20066;-79
2021/08/23 14:27:41;;;;;;;1.20;0.70;;;;;;;28.95;24.72;92578.88;4789096;30;20055;-78
2021/08/23 14:30:09;;;;;;;0.57;0.55;;;;;;;28.63;24.44;92583.38;4788191;29;20063;-78
2021/08/23 14:32:34;;;;;;;0.93;0.57;;;;;;;28.64;24.74;92589.53;4787228;29;20054;-77
2021/08/23 14:35:02;;;;;;;0.93;0.82;;;;;;;28.08;25.64;92586.06;4789398;29;20145;-77
2021/08/23 14:37:28;;;;;;;1.80;1.05;;;;;;;28.62;26.72;92583.81;4787842;29;20043;-77
2021/08/23 14:39:55;;;;;;;1.00;0.63;;;;;;;27.71;24.83;92582.75;4789557;30;20506;-77
2021/08/23 14:42:21;;;;;;;1.13;0.70;;;;;;;27.87;24.86;92582.31;4803584;29;20051;-78
2021/08/23 14:44:46;;;;;;;1.65;0.68;;;;;;;27.45;26.01;92580.56;4781748;29;20044;-77
2021/08/23 14:47:14;;;;;;;2.25;1.17;;;;;;;27.47;26.29;92580.94;4781744;29;20051;-78
2021/08/23 14:49:40;;;;;;;1.40;1.08;;;;;;;27.14;26.08;92577.56;4796943;29;20074;-77
2021/08/23 14:52:06;;;;;;;1.27;0.70;;;;;;;26.83;26.77;92573.81;4793249;29;20494;-78
2021/08/23 14:54:32;;;;;;;0.70;0.52;;;;;;;27.09;26.50;92581.44;4802426;29;20055;-77
2021/08/23 14:56:57;;;;;;;1.08;0.60;;;;;;;27.24;25.21;92571.41;4796856;29;20053;-77
2021/08/23 14:59:23;;;;;;;1.35;0.93;;;;;;;26.95;25.80;92576.06;4801133;29;20096;-77
2021/08/23 15:01:49;;;;;;;0.88;0.60;;;;;;;26.85;25.80;92571.50;4788666;29;20065;-77
2021/08/23 15:04:14;;;;;;;0.88;0.60;;;;;;;26.66;26.28;92576.13;4787100;29;20502;-77
2021/08/23 15:06:40;;;;;;;1.08;0.75;;;;;;;26.43;26.50;92579.16;4802339;29;20077;-77